Oak Hill, Florida
Current Conditions -  °F | °C
As of 12:58 PM on Saturday 25 Oct 2014 (Local Time) from KTTS Reporting Station
Clear Clear  
Wind Chill: 77°   Ceiling: Unl
Heat Index: 79°   Visibility: 10mi
Dew Point: 62°   Wind: 14mph
Humidity: 60%   Direction: 360°N
Pressure: 29.96"   Gusts: 20mph
Location:  28.86°N, 80.85°W
Report Text: KTTS 251658Z AUTO 36012G17KT 10SM CLR 25/17 A2996 RMK AO2 SLP148 T02510168 VISNO RWY33 CHINO RWY33
Loading
Personal Weather Stations






























Interactive Weather Map New forecast layout! Learn more

10-Day Weather Forecast

Advertisements
Track Severe Weather on mobile